createdAt,value
2022-08-28T00:00:56.633Z,24.90
2022-08-28T00:03:19.745Z,24.76
2022-08-28T00:05:42.695Z,24.69
2022-08-28T00:08:06.441Z,24.48
2022-08-28T00:10:30.387Z,24.38
2022-08-28T00:12:55.787Z,24.37
2022-08-28T00:15:28.103Z,24.20
2022-08-28T00:17:50.920Z,24.03
2022-08-28T00:20:15.610Z,23.87
2022-08-28T00:22:39.589Z,23.85
2022-08-28T00:25:02.115Z,23.76
2022-08-28T00:27:43.658Z,23.65
2022-08-28T00:30:09.096Z,23.63
2022-08-28T00:32:31.852Z,23.52
2022-08-28T00:34:54.659Z,23.42
2022-08-28T00:37:17.569Z,23.34
2022-08-28T00:39:40.142Z,23.28
2022-08-28T00:42:03.623Z,23.20
2022-08-28T00:44:28.890Z,23.17
2022-08-28T00:46:54.081Z,23.11
2022-08-28T00:49:21.167Z,23.03
2022-08-28T00:52:03.076Z,23.01
2022-08-28T00:54:27.009Z,22.99
2022-08-28T00:56:52.111Z,22.83
2022-08-28T00:59:18.322Z,22.83
2022-08-28T01:01:41.823Z,22.83
2022-08-28T01:04:06.313Z,22.86
2022-08-28T01:06:28.872Z,22.89
2022-08-28T01:08:53.839Z,22.83
2022-08-28T01:11:18.387Z,22.72
2022-08-28T01:13:46.943Z,22.70
2022-08-28T01:16:10.970Z,22.70
2022-08-28T01:18:34.299Z,22.66
2022-08-28T01:21:10.749Z,22.62
2022-08-28T01:23:58.086Z,22.63
2022-08-28T01:26:22.254Z,22.59
2022-08-28T01:28:45.589Z,22.67
2022-08-28T01:31:13.347Z,22.55
2022-08-28T01:33:36.025Z,22.56
2022-08-28T01:36:03.444Z,22.48
2022-08-28T01:38:27.085Z,22.41
2022-08-28T01:40:53.475Z,22.43
2022-08-28T01:43:20.062Z,22.38
2022-08-28T01:45:45.668Z,22.38
2022-08-28T01:48:09.105Z,22.32
2022-08-28T01:50:33.542Z,22.35
2022-08-28T01:52:56.036Z,22.25
2022-08-28T01:55:20.657Z,22.21
2022-08-28T01:57:51.343Z,22.19
2022-08-28T02:00:14.896Z,22.16
2022-08-28T02:02:37.472Z,22.18
2022-08-28T02:05:00.107Z,22.18
2022-08-28T02:07:22.644Z,22.16
2022-08-28T02:09:45.418Z,22.15
2022-08-28T02:12:08.007Z,21.98
2022-08-28T02:14:30.580Z,21.87
2022-08-28T02:16:53.376Z,21.86
2022-08-28T02:19:15.921Z,21.84
2022-08-28T02:21:38.829Z,21.84
2022-08-28T02:24:01.989Z,21.76
2022-08-28T02:26:24.689Z,21.80
2022-08-28T02:28:48.373Z,21.81
2022-08-28T02:31:11.534Z,21.78
2022-08-28T02:33:37.712Z,21.78
2022-08-28T02:36:00.322Z,21.91
2022-08-28T02:38:22.967Z,21.95
2022-08-28T02:40:45.562Z,21.87
2022-08-28T02:43:08.269Z,21.93
2022-08-28T02:45:30.900Z,21.90
2022-08-28T02:47:54.485Z,21.95
2022-08-28T02:50:18.921Z,21.90
2022-08-28T02:52:42.051Z,21.69
2022-08-28T02:55:06.795Z,21.66
2022-08-28T02:57:30.319Z,21.57
2022-08-28T02:59:52.944Z,21.56
2022-08-28T03:02:15.657Z,21.46
2022-08-28T03:04:38.593Z,21.43
2022-08-28T03:07:01.280Z,21.43
2022-08-28T03:09:24.015Z,21.43
2022-08-28T03:11:46.650Z,21.38
2022-08-28T03:14:09.278Z,21.36
2022-08-28T03:16:32.700Z,21.35
2022-08-28T03:18:55.532Z,21.30
2022-08-28T03:21:18.397Z,21.22
2022-08-28T03:23:41.178Z,21.16
2022-08-28T03:26:17.074Z,21.19
2022-08-28T03:28:46.374Z,21.05
2022-08-28T03:31:11.840Z,21.03
2022-08-28T03:33:34.887Z,21.08
2022-08-28T03:35:58.146Z,21.13
2022-08-28T03:38:21.913Z,21.03
2022-08-28T03:40:46.348Z,21.05
2022-08-28T03:43:11.692Z,21.09
2022-08-28T03:45:34.334Z,21.08
2022-08-28T03:47:56.955Z,21.06
2022-08-28T03:50:20.534Z,21.12
2022-08-28T03:52:43.632Z,21.15
2022-08-28T03:55:09.198Z,21.13
2022-08-28T03:57:31.791Z,21.06
2022-08-28T03:59:54.637Z,21.21
2022-08-28T04:02:19.484Z,21.25
2022-08-28T04:04:42.112Z,21.26
2022-08-28T04:07:05.058Z,21.35
2022-08-28T04:09:28.158Z,21.42
2022-08-28T04:11:52.979Z,21.45
2022-08-28T04:14:15.570Z,21.45
2022-08-28T04:16:38.675Z,21.46
2022-08-28T04:19:01.327Z,21.53
2022-08-28T04:21:26.053Z,21.50
2022-08-28T04:23:49.516Z,21.51
2022-08-28T04:26:18.931Z,21.47
2022-08-28T04:28:42.623Z,21.40
2022-08-28T04:31:05.668Z,21.46
2022-08-28T04:33:28.908Z,21.51
2022-08-28T04:35:51.749Z,21.63
2022-08-28T04:38:14.379Z,21.81
2022-08-28T04:40:40.431Z,21.94
2022-08-28T04:43:03.081Z,22.00
2022-08-28T04:45:25.757Z,22.05
2022-08-28T04:47:49.056Z,22.18
2022-08-28T04:50:12.118Z,22.19
2022-08-28T04:52:34.890Z,22.26
2022-08-28T04:54:57.731Z,22.31
2022-08-28T04:57:20.288Z,22.48
2022-08-28T04:59:45.042Z,22.53
2022-08-28T05:02:08.048Z,22.63
2022-08-28T05:04:31.024Z,22.67
2022-08-28T05:06:53.636Z,22.79
2022-08-28T05:09:19.258Z,22.87
2022-08-28T05:11:42.768Z,22.94
2022-08-28T05:14:11.567Z,23.07
2022-08-28T05:16:52.967Z,22.99
2022-08-28T05:19:18.232Z,23.04
2022-08-28T05:21:40.844Z,23.06
2022-08-28T05:24:04.667Z,23.14
2022-08-28T05:26:29.873Z,23.45
2022-08-28T05:28:54.803Z,23.62
2022-08-28T05:31:19.974Z,24.07
2022-08-28T05:33:44.823Z,25.19
2022-08-28T05:36:07.978Z,26.29
2022-08-28T05:38:30.630Z,26.23
2022-08-28T05:40:53.247Z,25.96
2022-08-28T05:43:17.421Z,25.26
2022-08-28T05:45:40.630Z,24.75
2022-08-28T05:48:03.738Z,24.54
2022-08-28T05:50:26.275Z,24.64
2022-08-28T05:52:49.041Z,24.61
2022-08-28T05:55:13.263Z,24.40
2022-08-28T05:57:36.000Z,24.58
2022-08-28T05:59:58.568Z,24.61
2022-08-28T06:02:21.224Z,24.75
2022-08-28T06:04:44.013Z,24.54
2022-08-28T06:07:06.787Z,24.86
2022-08-28T06:09:30.191Z,25.46
2022-08-28T06:11:58.878Z,25.27
2022-08-28T06:14:22.018Z,25.38
2022-08-28T06:16:47.118Z,25.02
2022-08-28T06:19:11.391Z,25.06
2022-08-28T06:21:34.129Z,24.85
2022-08-28T06:23:57.030Z,24.82
2022-08-28T06:26:20.027Z,24.89
2022-08-28T06:28:42.600Z,24.95
2022-08-28T06:31:23.192Z,25.16
2022-08-28T06:33:47.901Z,25.27
2022-08-28T06:36:11.350Z,25.28
2022-08-28T06:38:34.131Z,25.53
2022-08-28T06:40:57.624Z,25.85
2022-08-28T06:43:23.683Z,26.06
2022-08-28T06:45:48.612Z,25.94
2022-08-28T06:48:16.489Z,25.82
2022-08-28T06:50:41.019Z,25.63
2022-08-28T06:53:03.759Z,25.75
2022-08-28T06:55:26.493Z,26.05
2022-08-28T06:57:50.048Z,26.03
2022-08-28T07:00:13.202Z,26.11
2022-08-28T07:02:35.831Z,26.20
2022-08-28T07:04:58.445Z,26.65
2022-08-28T07:07:32.640Z,26.83
2022-08-28T07:09:55.530Z,26.91
2022-08-28T07:12:18.503Z,27.05
2022-08-28T07:14:41.093Z,27.31
2022-08-28T07:17:03.861Z,27.59
2022-08-28T07:19:26.682Z,27.47
2022-08-28T07:21:49.236Z,27.28
2022-08-28T07:24:14.725Z,27.33
2022-08-28T07:26:40.891Z,27.49
2022-08-28T07:29:09.558Z,27.42
2022-08-28T07:31:33.205Z,27.41
2022-08-28T07:33:56.354Z,27.39
2022-08-28T07:36:29.745Z,27.22
2022-08-28T07:38:53.424Z,27.41
2022-08-28T07:41:25.205Z,27.15
2022-08-28T07:44:06.720Z,27.31
2022-08-28T07:46:29.419Z,27.26
2022-08-28T07:48:53.530Z,27.25
2022-08-28T07:51:16.176Z,27.52
2022-08-28T07:53:38.735Z,27.42
2022-08-28T07:56:01.634Z,27.63
2022-08-28T07:58:28.393Z,28.10
2022-08-28T08:00:51.588Z,28.48
2022-08-28T08:03:14.935Z,28.59
2022-08-28T08:05:37.602Z,28.80
2022-08-28T08:08:00.226Z,29.03
2022-08-28T08:10:23.500Z,29.14
2022-08-28T08:12:46.206Z,29.06
2022-08-28T08:15:10.885Z,28.94
2022-08-28T08:17:34.006Z,28.99
2022-08-28T08:19:56.648Z,29.14
2022-08-28T08:22:19.177Z,29.35
2022-08-28T08:24:42.893Z,29.11
2022-08-28T08:27:06.797Z,29.00
2022-08-28T08:29:32.783Z,29.00
2022-08-28T08:31:58.103Z,29.00
2022-08-28T08:34:24.751Z,28.82
2022-08-28T08:36:47.400Z,28.90
2022-08-28T08:39:10.127Z,28.84
2022-08-28T08:41:54.214Z,28.82
2022-08-28T08:44:40.445Z,28.65
2022-08-28T08:47:15.925Z,28.55
2022-08-28T08:49:43.021Z,28.39
2022-08-28T08:52:11.260Z,28.45
2022-08-28T08:54:33.932Z,28.53
2022-08-28T08:56:56.804Z,28.69
2022-08-28T08:59:26.157Z,28.41
2022-08-28T09:02:01.315Z,28.56
2022-08-28T09:04:50.537Z,28.62
2022-08-28T09:07:18.709Z,28.84
2022-08-28T09:09:53.468Z,28.66
2022-08-28T09:12:20.001Z,28.80
2022-08-28T09:15:08.978Z,28.76
2022-08-28T09:17:37.502Z,28.83
2022-08-28T09:20:00.580Z,29.07
2022-08-28T09:22:23.244Z,29.15
2022-08-28T09:24:46.093Z,28.94
2022-08-28T09:27:26.319Z,29.15
2022-08-28T09:29:59.487Z,29.15
2022-08-28T09:32:34.115Z,29.38
2022-08-28T09:35:02.669Z,29.51
2022-08-28T09:37:27.267Z,29.61
2022-08-28T09:39:49.976Z,29.73
2022-08-28T09:42:41.778Z,29.73
2022-08-28T09:45:09.163Z,29.85
2022-08-28T09:47:57.323Z,29.83
2022-08-28T09:50:25.048Z,29.82
2022-08-28T09:52:48.380Z,29.89
2022-08-28T09:55:17.680Z,29.80
2022-08-28T09:57:45.293Z,29.96
2022-08-28T10:00:08.575Z,29.98
2022-08-28T10:03:07.811Z,30.10
2022-08-28T10:06:11.965Z,30.12
2022-08-28T10:08:47.432Z,30.27
2022-08-28T10:11:28.068Z,30.34
2022-08-28T10:14:17.418Z,30.12
2022-08-28T10:16:47.180Z,29.93
2022-08-28T10:19:45.076Z,30.00
2022-08-28T10:22:39.777Z,30.23
2022-08-28T10:25:14.207Z,30.24
2022-08-28T10:27:40.149Z,30.21
2022-08-28T10:30:16.003Z,30.26
2022-08-28T10:32:47.990Z,30.14
2022-08-28T10:36:04.543Z,30.14
2022-08-28T10:38:59.186Z,30.21
2022-08-28T10:41:28.525Z,30.36
2022-08-28T10:43:54.189Z,30.40
2022-08-28T10:46:27.059Z,30.23
2022-08-28T10:49:02.210Z,30.38
2022-08-28T10:51:46.793Z,30.38
2022-08-28T10:54:27.605Z,30.58
2022-08-28T10:56:56.940Z,30.74
2022-08-28T10:59:20.376Z,30.65
2022-08-28T11:01:43.461Z,30.67
2022-08-28T11:04:23.445Z,30.71
2022-08-28T11:06:54.982Z,30.58
2022-08-28T11:09:31.576Z,30.45
2022-08-28T11:12:03.398Z,30.55
2022-08-28T11:14:31.047Z,30.51
2022-08-28T11:16:56.888Z,30.60
2022-08-28T11:19:52.367Z,30.69
2022-08-28T11:22:40.543Z,30.85
2022-08-28T11:25:12.619Z,30.91
2022-08-28T11:27:37.582Z,30.54
2022-08-28T11:30:09.461Z,30.67
2022-08-28T11:32:32.046Z,30.79
2022-08-28T11:35:13.047Z,30.82
2022-08-28T11:37:43.390Z,30.81
2022-08-28T11:40:41.465Z,30.95
2022-08-28T11:43:16.445Z,31.02
2022-08-28T11:45:48.187Z,31.02
2022-08-28T11:48:23.173Z,31.13
2022-08-28T11:51:39.905Z,31.23
2022-08-28T11:54:11.666Z,31.43
2022-08-28T11:56:48.068Z,30.81
2022-08-28T12:00:04.811Z,31.08
2022-08-28T12:02:46.866Z,31.12
2022-08-28T12:05:31.553Z,30.78
2022-08-28T12:07:54.262Z,30.85
2022-08-28T12:10:22.615Z,30.82
2022-08-28T12:12:45.257Z,30.98
2022-08-28T12:15:11.294Z,30.98
2022-08-28T12:17:44.599Z,30.98
2022-08-28T12:20:22.713Z,31.16
2022-08-28T12:22:53.109Z,31.22
2022-08-28T12:25:39.535Z,31.43
2022-08-28T12:28:28.789Z,31.54
2022-08-28T12:31:13.284Z,31.47
2022-08-28T12:33:40.106Z,31.47
2022-08-28T12:36:04.363Z,31.20
2022-08-28T12:38:29.960Z,30.88
2022-08-28T12:40:53.007Z,30.79
2022-08-28T12:43:23.352Z,30.75
2022-08-28T12:45:51.798Z,30.93
2022-08-28T12:48:32.488Z,31.11
2022-08-28T12:51:21.048Z,31.06
2022-08-28T12:53:46.859Z,30.79
2022-08-28T12:56:11.884Z,30.61
2022-08-28T12:58:37.592Z,30.76
2022-08-28T13:01:06.854Z,30.84
2022-08-28T13:03:30.373Z,31.08
2022-08-28T13:06:00.548Z,31.06
2022-08-28T13:08:23.721Z,31.04
2022-08-28T13:10:51.250Z,31.13
2022-08-28T13:13:24.680Z,31.12
2022-08-28T13:15:47.806Z,31.15
2022-08-28T13:18:10.828Z,31.13
2022-08-28T13:20:36.554Z,31.03
2022-08-28T13:23:00.351Z,31.11
2022-08-28T13:25:26.632Z,31.18
2022-08-28T13:28:11.764Z,31.23
2022-08-28T13:30:35.366Z,31.26
2022-08-28T13:33:02.502Z,31.15
2022-08-28T13:35:25.021Z,31.13
2022-08-28T13:37:51.660Z,31.00
2022-08-28T13:40:45.956Z,30.85
2022-08-28T13:43:07.354Z,30.95
2022-08-28T13:45:42.677Z,30.84
2022-08-28T13:48:06.358Z,30.75
2022-08-28T13:50:29.368Z,30.82
2022-08-28T13:52:51.963Z,30.88
2022-08-28T13:55:15.528Z,30.84
2022-08-28T13:57:38.377Z,30.85
2022-08-28T14:00:01.007Z,30.81
2022-08-28T14:02:42.425Z,30.58
2022-08-28T14:05:05.921Z,30.82
2022-08-28T14:07:31.908Z,30.67
2022-08-28T14:09:56.555Z,30.78
2022-08-28T14:12:19.378Z,30.68
2022-08-28T14:14:42.331Z,30.74
2022-08-28T14:17:06.644Z,30.72
2022-08-28T14:19:29.984Z,30.81
2022-08-28T14:21:52.536Z,30.79
2022-08-28T14:24:15.106Z,30.89
2022-08-28T14:26:38.385Z,30.75
2022-08-28T14:29:02.830Z,30.86
2022-08-28T14:31:26.464Z,30.91
2022-08-28T14:33:49.864Z,30.93
2022-08-28T14:36:18.208Z,31.03
2022-08-28T14:38:40.953Z,31.00
2022-08-28T14:41:07.788Z,31.06
2022-08-28T14:43:31.606Z,31.04
2022-08-28T14:45:54.151Z,31.04
2022-08-28T14:48:18.522Z,30.89
2022-08-28T14:50:46.897Z,30.93
2022-08-28T14:53:10.153Z,30.82
2022-08-28T14:55:39.153Z,30.84
2022-08-28T14:58:01.706Z,30.93
2022-08-28T15:00:24.504Z,30.93
2022-08-28T15:02:47.294Z,30.86
2022-08-28T15:05:11.926Z,30.98
2022-08-28T15:07:34.738Z,30.85
2022-08-28T15:09:57.341Z,30.81
2022-08-28T15:12:20.380Z,30.63
2022-08-28T15:14:55.083Z,30.64
2022-08-28T15:17:19.866Z,30.48
2022-08-28T15:19:42.484Z,30.40
2022-08-28T15:22:05.149Z,30.28
2022-08-28T15:24:31.445Z,30.33
2022-08-28T15:26:54.683Z,30.21
2022-08-28T15:29:17.919Z,30.18
2022-08-28T15:31:43.747Z,29.89
2022-08-28T15:34:13.406Z,29.76
2022-08-28T15:36:37.211Z,29.42
2022-08-28T15:39:18.813Z,29.41
2022-08-28T15:41:41.544Z,29.37
2022-08-28T15:44:05.352Z,29.25
2022-08-28T15:46:31.492Z,29.10
2022-08-28T15:48:55.071Z,28.97
2022-08-28T15:51:22.780Z,29.02
2022-08-28T15:53:48.407Z,29.03
2022-08-28T15:56:11.536Z,28.92
2022-08-28T15:58:34.127Z,28.82
2022-08-28T16:00:56.771Z,28.83
2022-08-28T16:03:21.276Z,28.65
2022-08-28T16:05:44.871Z,28.60
2022-08-28T16:08:07.565Z,28.58
2022-08-28T16:10:30.819Z,28.55
2022-08-28T16:12:57.456Z,28.55
2022-08-28T16:15:21.445Z,28.44
2022-08-28T16:17:44.131Z,28.38
2022-08-28T16:20:12.918Z,28.28
2022-08-28T16:22:37.279Z,28.27
2022-08-28T16:25:00.386Z,28.14
2022-08-28T16:27:24.010Z,28.10
2022-08-28T16:29:46.841Z,28.14
2022-08-28T16:32:12.854Z,28.15
2022-08-28T16:34:37.001Z,28.02
2022-08-28T16:37:00.445Z,28.05
2022-08-28T16:39:23.102Z,28.07
2022-08-28T16:41:49.963Z,28.05
2022-08-28T16:44:12.685Z,28.00
2022-08-28T16:46:35.440Z,28.04
2022-08-28T16:48:59.733Z,27.96
2022-08-28T16:51:26.772Z,27.90
2022-08-28T16:53:49.508Z,27.91
2022-08-28T16:56:14.190Z,27.83
2022-08-28T16:58:38.227Z,27.73
2022-08-28T17:01:00.837Z,27.69
2022-08-28T17:03:26.527Z,27.63
2022-08-28T17:05:49.500Z,27.63
2022-08-28T17:08:12.336Z,27.66
2022-08-28T17:10:35.712Z,27.54
2022-08-28T17:12:58.311Z,27.45
2022-08-28T17:15:22.338Z,27.38
2022-08-28T17:17:45.358Z,27.33
2022-08-28T17:20:30.439Z,27.28
2022-08-28T17:22:53.143Z,27.16
2022-08-28T17:25:16.117Z,27.09
2022-08-28T17:27:39.298Z,27.06
2022-08-28T17:30:04.389Z,27.08
2022-08-28T17:32:27.800Z,26.98
2022-08-28T17:34:51.371Z,26.91
2022-08-28T17:37:14.109Z,26.90
2022-08-28T17:39:36.793Z,26.92
2022-08-28T17:41:59.954Z,26.97
2022-08-28T17:44:23.441Z,26.97
2022-08-28T17:46:46.075Z,26.98
2022-08-28T17:49:09.201Z,26.94
2022-08-28T17:51:43.005Z,26.87
2022-08-28T17:54:06.540Z,26.91
2022-08-28T17:56:33.115Z,26.88
2022-08-28T17:58:58.955Z,26.80
2022-08-28T18:01:25.422Z,26.76
2022-08-28T18:03:53.474Z,26.76
2022-08-28T18:06:16.372Z,26.77
2022-08-28T18:08:39.428Z,26.65
2022-08-28T18:11:02.122Z,26.59
2022-08-28T18:13:24.934Z,26.59
2022-08-28T18:15:51.871Z,26.60
2022-08-28T18:18:19.906Z,26.50
2022-08-28T18:20:49.581Z,26.53
2022-08-28T18:23:16.509Z,26.50
2022-08-28T18:25:42.422Z,26.39
2022-08-28T18:28:22.109Z,26.32
2022-08-28T18:30:47.066Z,26.28
2022-08-28T18:33:10.541Z,26.23
2022-08-28T18:35:36.183Z,26.23
2022-08-28T18:38:02.093Z,26.19
2022-08-28T18:40:25.385Z,26.15
2022-08-28T18:42:48.361Z,26.09
2022-08-28T18:45:11.469Z,26.09
2022-08-28T18:47:34.993Z,26.06
2022-08-28T18:49:58.041Z,25.99
2022-08-28T18:52:21.401Z,25.95
2022-08-28T18:54:44.210Z,25.92
2022-08-28T18:57:08.886Z,25.91
2022-08-28T18:59:34.487Z,25.84
2022-08-28T19:01:57.708Z,25.85
2022-08-28T19:04:20.959Z,25.80
2022-08-28T19:06:46.423Z,25.75
2022-08-28T19:09:09.220Z,25.67
2022-08-28T19:11:39.579Z,25.57
2022-08-28T19:14:03.756Z,25.57
2022-08-28T19:16:26.708Z,25.54
2022-08-28T19:18:52.998Z,25.53
2022-08-28T19:21:19.685Z,25.47
2022-08-28T19:23:55.246Z,25.51
2022-08-28T19:26:18.393Z,25.41
2022-08-28T19:28:41.328Z,25.41
2022-08-28T19:31:04.710Z,25.33
2022-08-28T19:33:27.482Z,25.30
2022-08-28T19:35:51.765Z,25.24
2022-08-28T19:38:14.509Z,25.19
2022-08-28T19:40:39.237Z,25.12
2022-08-28T19:43:01.902Z,25.06
2022-08-28T19:45:24.555Z,25.00
2022-08-28T19:47:47.411Z,24.95
2022-08-28T19:50:14.640Z,24.86
2022-08-28T19:52:37.305Z,24.81
2022-08-28T19:55:00.020Z,24.68
2022-08-28T19:57:22.579Z,24.57
2022-08-28T19:59:45.509Z,24.55
2022-08-28T20:02:08.814Z,24.54
2022-08-28T20:04:32.190Z,24.51
2022-08-28T20:06:54.781Z,24.45
2022-08-28T20:09:18.025Z,24.44
2022-08-28T20:11:44.260Z,24.41
2022-08-28T20:14:06.897Z,24.37
2022-08-28T20:16:30.372Z,24.27
2022-08-28T20:18:54.384Z,24.17
2022-08-28T20:21:18.730Z,24.23
2022-08-28T20:23:48.490Z,24.17
2022-08-28T20:26:11.364Z,24.12
2022-08-28T20:28:34.023Z,24.04
2022-08-28T20:30:56.697Z,24.03
2022-08-28T20:33:19.464Z,24.03
2022-08-28T20:35:42.358Z,24.09
2022-08-28T20:38:05.740Z,24.02
2022-08-28T20:40:28.517Z,23.92
2022-08-28T20:42:51.333Z,23.83
2022-08-28T20:45:15.514Z,23.85
2022-08-28T20:47:38.316Z,23.86
2022-08-28T20:50:01.031Z,23.76
2022-08-28T20:52:23.804Z,23.73
2022-08-28T20:54:46.711Z,23.69
2022-08-28T20:57:14.255Z,23.65
2022-08-28T20:59:39.857Z,23.61
2022-08-28T21:02:05.361Z,23.49
2022-08-28T21:04:30.328Z,23.55
2022-08-28T21:06:52.929Z,23.48
2022-08-28T21:09:16.704Z,23.44
2022-08-28T21:11:39.266Z,23.38
2022-08-28T21:14:01.790Z,23.45
2022-08-28T21:16:24.504Z,23.35
2022-08-28T21:19:14.008Z,23.35
2022-08-28T21:21:30.580Z,23.24
2022-08-28T21:23:53.215Z,23.24
2022-08-28T21:26:15.926Z,23.20
2022-08-28T21:28:39.057Z,23.21
2022-08-28T21:31:03.419Z,23.24
2022-08-28T21:33:26.122Z,23.15
2022-08-28T21:35:48.786Z,23.12
2022-08-28T21:38:12.170Z,23.10
2022-08-28T21:40:35.661Z,23.03
2022-08-28T21:42:58.521Z,23.06
2022-08-28T21:45:22.084Z,23.04
2022-08-28T21:47:44.684Z,23.04
2022-08-28T21:50:08.569Z,22.97
2022-08-28T21:52:31.655Z,22.89
2022-08-28T21:55:02.715Z,22.86
2022-08-28T21:57:26.625Z,22.87
2022-08-28T21:59:49.220Z,22.82
2022-08-28T22:02:11.817Z,22.82
2022-08-28T22:04:34.889Z,22.73
2022-08-28T22:06:57.521Z,22.67
2022-08-28T22:09:20.181Z,22.73
2022-08-28T22:11:42.832Z,22.72
2022-08-28T22:14:05.431Z,22.74
2022-08-28T22:16:29.784Z,22.73
2022-08-28T22:18:53.012Z,22.72
2022-08-28T22:21:37.162Z,22.69
2022-08-28T22:24:00.402Z,22.67
2022-08-28T22:26:23.165Z,22.67
2022-08-28T22:28:46.177Z,22.62
2022-08-28T22:31:09.063Z,22.59
2022-08-28T22:33:32.627Z,22.53
2022-08-28T22:35:55.262Z,22.49
2022-08-28T22:38:19.513Z,22.41
2022-08-28T22:40:42.228Z,22.36
2022-08-28T22:43:04.890Z,22.39
2022-08-28T22:45:27.465Z,22.35
2022-08-28T22:47:50.197Z,22.36
2022-08-28T22:50:13.060Z,22.34
2022-08-28T22:52:37.213Z,22.39
2022-08-28T22:54:59.747Z,22.35
2022-08-28T22:57:23.168Z,22.28
2022-08-28T22:59:45.788Z,22.26
2022-08-28T23:02:08.823Z,22.21
2022-08-28T23:04:31.391Z,22.24
2022-08-28T23:06:54.101Z,22.22
2022-08-28T23:09:16.681Z,22.21
2022-08-28T23:11:39.315Z,22.16
2022-08-28T23:14:02.221Z,22.18
2022-08-28T23:16:25.367Z,22.15
2022-08-28T23:19:07.517Z,22.11
2022-08-28T23:21:31.215Z,22.11
2022-08-28T23:23:55.078Z,22.00
2022-08-28T23:26:18.831Z,21.98
2022-08-28T23:28:42.072Z,22.05
2022-08-28T23:31:04.667Z,22.01
2022-08-28T23:33:27.220Z,21.95
2022-08-28T23:35:50.025Z,21.88
2022-08-28T23:38:13.019Z,21.86
2022-08-28T23:40:37.553Z,21.90
2022-08-28T23:43:00.412Z,21.91
2022-08-28T23:45:23.181Z,21.90
2022-08-28T23:47:46.243Z,21.88
2022-08-28T23:50:15.129Z,21.86
2022-08-28T23:52:37.792Z,21.77
2022-08-28T23:55:00.510Z,21.71
2022-08-28T23:57:23.116Z,21.78
2022-08-28T23:59:46.536Z,21.74
